Time;durP1;ratioP1;P1;durP2;ratioP2;P2;SDS_P1;SDS_P2;PMS_P1;PMS_P2;Temp;Humidity;BMP_temperature;BMP_pressure;BME280_temperature;BME280_humidity;BME280_pressure;Samples;Min_cycle;Max_cycle;Signal;HPM_P1;HPM_P2
2024/01/25 00:01:09;;;;;;;14.48;9.40;;;;;;;17.21;45.00;93957.91;5030330;28;20129;-87
2024/01/25 00:03:35;;;;;;;13.77;9.48;;;;;;;17.28;44.83;93949.25;5040774;28;20041;-90
2024/01/25 00:06:01;;;;;;;13.57;9.77;;;;;;;17.25;44.86;93971.34;5052052;28;20032;-90
2024/01/25 00:08:26;;;;;;;11.52;8.43;;;;;;;17.24;45.41;93967.13;5040265;28;20399;-92
2024/01/25 00:10:51;;;;;;;13.40;9.55;;;;;;;17.25;44.95;93968.63;5059263;28;20053;-90
2024/01/25 00:13:17;;;;;;;13.80;8.95;;;;;;;17.20;45.04;93959.16;5017454;28;20450;-91
2024/01/25 00:15:42;;;;;;;13.75;9.45;;;;;;;17.24;44.95;93956.94;5026421;28;20039;-89
2024/01/25 00:18:08;;;;;;;12.77;9.07;;;;;;;17.20;45.19;93950.97;5040052;28;20446;-90
2024/01/25 00:20:33;;;;;;;12.57;8.88;;;;;;;17.23;45.06;93955.44;5058766;28;20498;-88
2024/01/25 00:22:59;;;;;;;13.20;8.07;;;;;;;17.21;45.11;93941.53;5028934;28;20371;-91
2024/01/25 00:25:24;;;;;;;14.20;9.40;;;;;;;17.21;44.81;93949.72;5020507;28;20120;-90
2024/01/25 00:27:52;;;;;;;12.57;8.93;;;;;;;17.25;44.89;93954.97;5025515;28;20037;-90
2024/01/25 00:30:17;;;;;;;11.57;8.38;;;;;;;17.19;45.08;93949.47;5024138;28;20077;-91
2024/01/25 00:32:43;;;;;;;12.18;8.77;;;;;;;17.23;44.81;93941.78;5030953;28;20484;-89
2024/01/25 00:35:10;;;;;;;13.18;8.07;;;;;;;17.24;44.84;93943.28;5034369;28;20045;-90
2024/01/25 00:37:36;;;;;;;10.82;7.88;;;;;;;17.24;44.91;93956.19;5025858;28;20043;-91
2024/01/25 00:40:03;;;;;;;10.23;7.30;;;;;;;17.26;44.57;93948.25;5056793;28;20083;-89
2024/01/25 00:42:28;;;;;;;11.52;7.82;;;;;;;17.24;44.94;93962.41;5034791;28;20395;-90
2024/01/25 00:44:54;;;;;;;11.55;7.38;;;;;;;17.24;44.81;93953.47;5026036;28;20041;-91
2024/01/25 00:47:20;;;;;;;9.75;7.47;;;;;;;17.25;44.66;93974.09;5033017;28;20147;-89
2024/01/25 00:49:45;;;;;;;11.60;7.85;;;;;;;17.25;44.64;93958.44;5036796;28;21052;-90
2024/01/25 00:52:11;;;;;;;10.38;7.22;;;;;;;17.26;44.41;93953.72;5028404;28;20119;-88
2024/01/25 00:54:37;;;;;;;12.55;7.22;;;;;;;17.22;44.87;93961.41;5042074;28;20037;-90
2024/01/25 00:57:03;;;;;;;9.65;7.32;;;;;;;17.20;44.60;93970.09;5031749;28;20594;-89
2024/01/25 00:59:31;;;;;;;10.15;7.53;;;;;;;17.24;44.85;93969.84;5038124;28;20074;-89
2024/01/25 01:01:57;;;;;;;10.05;7.22;;;;;;;17.13;45.03;93974.00;5037469;28;20044;-92
2024/01/25 01:04:24;;;;;;;9.85;7.28;;;;;;;17.22;45.02;93978.53;5014319;28;20041;-88
2024/01/25 01:06:49;;;;;;;9.43;6.80;;;;;;;17.25;44.75;93976.81;5030998;28;20041;-90
2024/01/25 01:09:15;;;;;;;10.82;6.97;;;;;;;17.23;44.67;93990.22;5020219;28;20043;-90
2024/01/25 01:11:41;;;;;;;9.38;6.45;;;;;;;17.25;44.61;93982.28;5035043;28;20033;-91
2024/01/25 01:14:06;;;;;;;10.30;6.40;;;;;;;17.22;44.69;93975.06;5037309;28;20048;-90
2024/01/25 01:16:33;;;;;;;10.65;6.32;;;;;;;17.24;44.82;93997.19;5014730;28;20153;-91
2024/01/25 01:19:05;;;;;;;9.70;6.63;;;;;;;17.14;45.59;93980.97;5056078;28;20361;-89
2024/01/25 01:21:30;;;;;;;10.05;6.53;;;;;;;17.21;44.67;93979.78;5036516;28;20041;-90
2024/01/25 01:23:56;;;;;;;9.35;6.72;;;;;;;17.22;44.82;93991.44;5029593;28;20398;-90
2024/01/25 01:26:22;;;;;;;9.23;6.47;;;;;;;17.25;44.60;93980.31;5047092;28;20052;-89
2024/01/25 01:28:47;;;;;;;8.52;5.93;;;;;;;17.21;44.77;93981.75;5035099;28;20041;-90
2024/01/25 01:31:13;;;;;;;10.25;6.57;;;;;;;17.21;44.82;93982.50;5046885;28;20394;-90
2024/01/25 01:33:38;;;;;;;11.05;7.03;;;;;;;17.19;45.02;93984.22;5043592;28;20044;-90
2024/01/25 01:36:04;;;;;;;7.95;6.18;;;;;;;17.21;44.76;93976.28;5033742;28;20387;-90
2024/01/25 01:38:29;;;;;;;9.00;6.22;;;;;;;17.19;44.89;93984.97;5047677;28;20041;-90
2024/01/25 01:40:54;;;;;;;9.82;6.60;;;;;;;17.16;44.97;93974.28;5040737;28;20065;-90
2024/01/25 01:43:20;;;;;;;7.20;5.43;;;;;;;17.21;44.75;93979.78;5045863;28;20110;-91
2024/01/25 01:45:45;;;;;;;7.80;6.10;;;;;;;17.18;44.77;93983.47;5038531;28;20533;-91
2024/01/25 01:48:11;;;;;;;8.02;5.32;;;;;;;17.25;44.46;93980.31;5020710;28;20131;-90
2024/01/25 01:50:36;;;;;;;7.88;5.47;;;;;;;17.17;44.38;93981.97;5028972;28;20139;-89
2024/01/25 01:53:02;;;;;;;8.38;5.60;;;;;;;17.17;44.60;93981.97;5024361;28;20442;-91
2024/01/25 01:55:27;;;;;;;7.20;5.30;;;;;;;17.12;44.87;93971.78;5024454;28;20399;-89
2024/01/25 01:57:53;;;;;;;7.45;5.38;;;;;;;17.13;45.06;93954.88;5031114;28;20037;-91
2024/01/25 02:00:18;;;;;;;7.75;4.90;;;;;;;17.22;44.36;93970.34;5042409;28;20403;-90
2024/01/25 02:02:44;;;;;;;8.60;5.40;;;;;;;17.17;44.53;93967.56;5041864;28;20041;-88
2024/01/25 02:05:10;;;;;;;7.90;6.15;;;;;;;17.15;45.24;93962.59;5057591;28;20037;-91
2024/01/25 02:07:37;;;;;;;8.07;5.20;;;;;;;17.26;44.63;93961.91;5015980;28;20040;-91
2024/01/25 02:10:04;;;;;;;10.63;5.72;;;;;;;17.21;44.44;93963.38;5043614;28;20033;-90
2024/01/25 02:12:29;;;;;;;8.38;5.47;;;;;;;17.21;44.63;93970.84;5050409;28;20036;-90
2024/01/25 02:14:55;;;;;;;8.30;5.57;;;;;;;17.14;44.60;93963.84;5057445;28;20041;-89
2024/01/25 02:17:20;;;;;;;7.85;5.53;;;;;;;17.18;44.77;93967.09;5024030;28;20140;-90
2024/01/25 02:19:46;;;;;;;8.23;5.28;;;;;;;17.16;44.54;93961.38;5036344;28;20423;-89
2024/01/25 02:22:14;;;;;;;7.45;5.40;;;;;;;17.21;44.70;93968.84;5037967;28;20134;-89
2024/01/25 02:24:40;;;;;;;6.63;5.13;;;;;;;17.10;45.09;93955.16;5050574;28;20403;-91
2024/01/25 02:27:05;;;;;;;7.55;5.30;;;;;;;17.17;44.79;93962.88;5039074;28;20044;-91
2024/01/25 02:29:31;;;;;;;6.32;5.07;;;;;;;17.13;44.45;93954.88;5025674;28;20032;-90
2024/01/25 02:31:57;;;;;;;8.52;4.63;;;;;;;17.20;44.70;93950.97;5045455;28;20407;-91
2024/01/25 02:34:22;;;;;;;7.38;4.90;;;;;;;17.14;44.66;93953.66;5029252;28;20055;-90
2024/01/25 02:36:47;;;;;;;7.32;4.75;;;;;;;17.18;44.62;93966.34;5045177;28;20029;-89
2024/01/25 02:39:13;;;;;;;6.90;4.90;;;;;;;17.16;44.67;93961.38;5037052;28;20154;-90
2024/01/25 02:41:38;;;;;;;7.80;4.45;;;;;;;17.18;44.28;93969.06;5025528;28;20507;-91
2024/01/25 02:44:04;;;;;;;7.22;5.40;;;;;;;17.12;44.39;93956.13;5046280;28;20037;-91
2024/01/25 02:46:29;;;;;;;8.13;4.88;;;;;;;17.21;44.62;93962.63;5020792;28;20450;-91
2024/01/25 02:48:55;;;;;;;6.30;4.65;;;;;;;17.19;44.57;93965.09;5043763;28;20041;-90
2024/01/25 02:51:22;;;;;;;7.88;4.55;;;;;;;17.17;44.47;93964.84;5043920;28;20040;-90
2024/01/25 02:53:48;;;;;;;7.00;3.88;;;;;;;17.22;44.01;93945.75;5036984;28;20045;-90
2024/01/25 02:56:13;;;;;;;8.32;4.85;;;;;;;17.18;44.68;93947.22;5029567;28;20044;-89
2024/01/25 02:58:39;;;;;;;7.18;4.93;;;;;;;17.21;44.28;93957.16;5044840;28;20457;-90
2024/01/25 03:01:04;;;;;;;7.40;4.78;;;;;;;17.14;44.60;93947.44;5030396;28;20485;-90
2024/01/25 03:03:30;;;;;;;7.15;4.55;;;;;;;17.20;44.50;93950.22;5026415;28;20466;-88
2024/01/25 03:05:55;;;;;;;7.50;4.18;;;;;;;17.23;44.05;93947.25;5047203;28;20057;-91
2024/01/25 03:08:21;;;;;;;6.60;4.63;;;;;;;17.21;44.66;93949.72;5039723;28;20040;-91
2024/01/25 03:10:49;;;;;;;5.95;4.45;;;;;;;17.14;44.31;93947.44;5041836;28;20041;-91
2024/01/25 03:13:16;;;;;;;7.05;4.70;;;;;;;17.16;44.45;93934.03;5053255;28;20503;-91
2024/01/25 03:15:42;;;;;;;7.22;4.38;;;;;;;17.15;44.40;93948.94;5033513;28;20083;-90
2024/01/25 03:18:07;;;;;;;7.57;4.18;;;;;;;17.21;44.08;93949.72;5037887;28;20123;-89
2024/01/25 03:20:32;;;;;;;5.47;3.97;;;;;;;17.17;44.11;93951.94;5036682;28;20035;-91
2024/01/25 03:22:58;;;;;;;5.53;4.07;;;;;;;17.21;44.42;93954.44;5028196;28;20400;-91
2024/01/25 03:25:23;;;;;;;5.38;4.38;;;;;;;17.16;44.09;93947.72;5036075;28;20116;-88
2024/01/25 03:27:50;;;;;;;5.90;4.20;;;;;;;17.19;44.74;93962.38;5060113;28;20597;-88
2024/01/25 03:30:16;;;;;;;6.22;4.22;;;;;;;17.23;43.77;93960.91;5036623;28;20129;-91
2024/01/25 03:32:41;;;;;;;5.50;3.95;;;;;;;17.16;44.60;93955.91;5082833;28;20430;-89
2024/01/25 03:35:07;;;;;;;5.40;3.83;;;;;;;17.22;44.44;93950.47;5032374;28;20041;-91
2024/01/25 03:37:32;;;;;;;5.50;3.88;;;;;;;17.22;44.06;93943.03;5043611;28;20040;-90
2024/01/25 03:39:58;;;;;;;6.57;4.30;;;;;;;17.14;44.63;93945.47;5022293;28;20119;-90
2024/01/25 03:42:24;;;;;;;5.00;4.15;;;;;;;17.22;44.00;93943.03;5024979;28;20675;-91
2024/01/25 03:44:49;;;;;;;8.43;3.90;;;;;;;17.17;44.69;93932.81;5027779;28;20055;-90
2024/01/25 03:47:14;;;;;;;4.90;3.60;;;;;;;17.18;44.32;93942.50;5025963;28;20047;-91
2024/01/25 03:49:40;;;;;;;6.93;4.00;;;;;;;17.17;44.21;93940.25;5045778;28;20521;-91
2024/01/25 03:52:05;;;;;;;5.53;3.90;;;;;;;17.21;43.91;93940.78;5052727;28;20048;-91
2024/01/25 03:54:31;;;;;;;5.57;3.58;;;;;;;17.24;44.35;93937.06;5015822;28;20487;-90
2024/01/25 03:56:57;;;;;;;4.95;3.42;;;;;;;17.22;44.43;93931.34;5042015;28;20049;-91
2024/01/25 03:59:22;;;;;;;5.00;3.40;;;;;;;17.20;44.43;93937.28;5047116;28;20139;-89
2024/01/25 04:01:48;;;;;;;5.88;3.90;;;;;;;17.19;44.37;93940.53;5047377;28;20048;-91
2024/01/25 04:04:15;;;;;;;6.40;3.70;;;;;;;17.08;44.50;93930.31;5045127;28;20036;-89
2024/01/25 04:06:41;;;;;;;5.82;3.47;;;;;;;17.12;44.51;93934.28;5050761;28;20502;-89
2024/01/25 04:09:09;;;;;;;5.63;3.78;;;;;;;17.17;44.51;93935.53;5044689;28;20479;-91
2024/01/25 04:11:36;;;;;;;5.38;3.65;;;;;;;17.20;44.22;93942.00;5050262;28;20059;-92
2024/01/25 04:14:01;;;;;;;7.38;3.70;;;;;;;17.18;44.29;93945.22;5016888;28;20032;-86
2024/01/25 04:16:27;;;;;;;5.38;3.67;;;;;;;17.19;43.83;93935.81;5046375;28;20052;-90
2024/01/25 04:18:52;;;;;;;5.13;3.42;;;;;;;17.21;44.17;93946.25;5028022;28;20049;-90
2024/01/25 04:21:18;;;;;;;5.18;3.30;;;;;;;17.09;44.40;93948.19;5037272;28;20041;-90
2024/01/25 04:23:43;;;;;;;4.05;3.17;;;;;;;17.15;44.65;93943.47;5023192;28;20076;-91
2024/01/25 04:26:09;;;;;;;4.97;3.35;;;;;;;17.20;44.08;93937.28;5052268;28;20145;-88
2024/01/25 04:28:34;;;;;;;6.13;3.58;;;;;;;17.18;44.38;93944.47;5044446;28;20453;-92
2024/01/25 04:31:03;;;;;;;51.38;39.95;;;;;;;17.13;44.62;93935.03;5052816;28;20902;-93
2024/01/25 04:33:28;;;;;;;13.32;9.73;;;;;;;17.17;44.42;93937.53;5062141;28;20067;-91
2024/01/25 04:35:54;;;;;;;21.90;16.40;;;;;;;17.18;43.97;93928.09;5046253;28;20538;-88
2024/01/25 04:38:19;;;;;;;137.88;59.67;;;;;;;17.26;44.20;93938.06;5035298;28;20156;-94
2024/01/25 04:40:50;;;;;;;33.75;20.35;;;;;;;17.25;44.46;93930.38;5027789;28;20033;-88
2024/01/25 04:43:15;;;;;;;9.48;4.88;;;;;;;17.28;43.91;93938.34;5051200;28;20051;-92
2024/01/25 04:46:02;;;;;;;45.25;25.27;;;;;;;17.28;44.11;93946.53;5010591;28;20032;-92
2024/01/25 04:48:26;;;;;;;52.40;21.33;;;;;;;17.24;44.54;93937.06;5005667;28;20072;-93
2024/01/25 04:50:52;;;;;;;108.78;37.50;;;;;;;17.23;43.88;93938.31;5003085;28;20538;-89
2024/01/25 04:53:26;;;;;;;21.55;10.70;;;;;;;17.21;44.13;93947.00;5031450;28;20036;-90
2024/01/25 04:55:54;;;;;;;23.83;11.07;;;;;;;17.28;44.10;93930.13;5017496;28;20037;-89
2024/01/25 04:58:19;;;;;;;17.88;9.82;;;;;;;17.23;43.73;93943.78;5014806;28;20041;-88
2024/01/25 05:00:45;;;;;;;24.30;8.43;;;;;;;17.23;43.96;93943.78;5009719;28;20041;-90
2024/01/25 05:03:10;;;;;;;14.65;8.40;;;;;;;17.19;43.72;93940.53;5002853;28;20036;-89
2024/01/25 05:05:36;;;;;;;20.35;9.23;;;;;;;17.05;43.70;93948.41;5010671;28;20046;-88
2024/01/25 05:08:01;;;;;;;35.63;9.32;;;;;;;17.11;43.37;93942.94;5007244;28;20044;-88
2024/01/25 05:10:27;;;;;;;24.35;11.80;;;;;;;17.17;43.67;93938.28;5029469;28;20044;-89
2024/01/25 05:12:52;;;;;;;33.80;14.65;;;;;;;17.11;43.94;93923.84;5056493;28;20043;-88
2024/01/25 05:15:18;;;;;;;28.70;14.52;;;;;;;17.12;43.80;93933.53;5023777;28;20090;-85
2024/01/25 05:17:43;;;;;;;35.55;15.63;;;;;;;17.16;43.85;93939.50;5046586;28;20032;-89
2024/01/25 05:20:09;;;;;;;38.58;18.42;;;;;;;17.19;43.96;93940.53;5050136;28;20043;-87
2024/01/25 05:22:40;;;;;;;59.65;24.75;;;;;;;17.18;44.24;93941.75;5068943;28;20028;-90
2024/01/25 05:25:06;;;;;;;59.38;25.63;;;;;;;17.17;43.97;93926.59;5044153;28;20041;-88
2024/01/25 05:27:31;;;;;;;55.25;24.98;;;;;;;17.19;44.37;93932.31;5039259;28;20059;-89
2024/01/25 05:29:57;;;;;;;53.15;22.02;;;;;;;17.20;43.63;93931.09;5023828;28;20056;-89
2024/01/25 05:32:22;;;;;;;56.85;24.35;;;;;;;17.20;43.42;93940.03;5041740;28;20628;-90
2024/01/25 05:34:48;;;;;;;62.85;24.27;;;;;;;17.18;44.03;93934.31;5046600;28;20048;-89
2024/01/25 05:37:13;;;;;;;62.63;24.95;;;;;;;17.15;43.88;93943.47;5029169;28;20044;-90
2024/01/25 05:39:39;;;;;;;55.45;26.27;;;;;;;17.08;44.21;93947.44;5041378;28;20029;-90
2024/01/25 05:42:04;;;;;;;64.00;22.50;;;;;;;17.12;44.24;93945.19;5046983;28;20055;-88
2024/01/25 05:44:30;;;;;;;70.07;24.70;;;;;;;17.24;43.76;93934.34;5056126;28;20542;-89
2024/01/25 05:46:55;;;;;;;61.10;24.65;;;;;;;17.18;44.39;93950.69;5052001;28;20047;-91
2024/01/25 05:49:21;;;;;;;62.90;23.90;;;;;;;17.18;43.73;93950.69;5057047;28;20402;-89
2024/01/25 05:51:46;;;;;;;55.15;24.88;;;;;;;17.20;43.63;93950.22;5038771;28;20040;-89
2024/01/25 05:54:12;;;;;;;68.22;33.40;;;;;;;17.22;43.62;93958.66;5048480;28;20099;-88
2024/01/25 05:56:37;;;;;;;82.03;36.25;;;;;;;17.23;43.79;93924.66;5030456;28;20410;-90
2024/01/25 05:59:03;;;;;;;74.50;34.30;;;;;;;17.17;43.75;93921.88;5050283;28;20441;-91
2024/01/25 06:01:28;;;;;;;83.25;40.08;;;;;;;17.10;44.17;93927.84;5033107;28;20040;-90
2024/01/25 06:03:54;;;;;;;92.32;41.63;;;;;;;17.14;43.78;93931.06;5032455;28;20051;-95
2024/01/25 06:06:22;;;;;;;116.28;48.92;;;;;;;17.15;44.16;93935.28;5040046;28;20040;-91
2024/01/25 06:08:48;;;;;;;111.40;52.58;;;;;;;17.16;44.20;93934.03;5027032;28;20502;-94
2024/01/25 06:11:13;;;;;;;89.82;37.92;;;;;;;17.09;43.48;93942.72;5038199;28;20066;-90
2024/01/25 06:13:39;;;;;;;103.50;39.67;;;;;;;17.15;43.58;93951.66;5035785;28;20109;-90
2024/01/25 06:16:04;;;;;;;128.02;49.90;;;;;;;17.15;43.77;93951.66;5021353;28;20117;-91
2024/01/25 06:18:30;;;;;;;101.53;45.38;;;;;;;17.17;43.73;93960.13;5024365;28;20051;-90
2024/01/25 06:20:56;;;;;;;102.25;43.13;;;;;;;17.16;43.61;93964.09;5029819;28;20041;-91
2024/01/25 06:23:21;;;;;;;91.18;45.45;;;;;;;17.14;43.90;93975.50;5051356;28;20041;-89
2024/01/25 06:25:46;;;;;;;90.25;44.13;;;;;;;17.16;44.09;93991.41;5033872;28;20174;-89
2024/01/25 06:28:13;;;;;;;87.93;43.13;;;;;;;17.11;43.69;93987.41;5032751;28;20043;-90
2024/01/25 06:30:38;;;;;;;100.43;45.42;;;;;;;17.12;43.78;93997.09;5050559;28;20085;-90
2024/01/25 06:33:04;;;;;;;107.35;52.35;;;;;;;17.19;43.62;93998.63;5029757;28;20071;-89
2024/01/25 06:35:30;;;;;;;113.32;56.45;;;;;;;17.18;43.77;93993.66;5055146;28;20044;-88
2024/01/25 06:37:56;;;;;;;128.07;60.92;;;;;;;17.17;43.69;94000.38;5039534;28;20040;-90
2024/01/25 06:40:21;;;;;;;129.15;61.17;;;;;;;17.18;43.86;93978.03;5030557;28;20047;-91
2024/01/25 06:42:47;;;;;;;136.93;59.55;;;;;;;17.18;43.72;93980.75;5027623;28;20067;-90
2024/01/25 06:45:12;;;;;;;108.82;52.92;;;;;;;17.23;43.47;93973.81;5050165;28;20056;-90
2024/01/25 06:47:38;;;;;;;105.07;52.58;;;;;;;17.22;43.81;93969.59;5063799;28;20044;-87
2024/01/25 06:50:03;;;;;;;137.52;59.38;;;;;;;17.21;43.89;93974.31;5033086;28;20025;-90
2024/01/25 06:52:29;;;;;;;149.50;72.05;;;;;;;17.25;43.66;93985.00;5043488;28;20040;-92
2024/01/25 06:54:54;;;;;;;170.63;76.47;;;;;;;17.35;43.36;93989.03;5031954;28;20140;-89
2024/01/25 06:57:20;;;;;;;162.07;72.45;;;;;;;17.24;43.72;93978.81;5049212;28;20094;-94
2024/01/25 06:59:46;;;;;;;146.38;72.10;;;;;;;17.27;43.79;93979.81;5023559;28;20532;-90
2024/01/25 07:02:11;;;;;;;149.90;74.55;;;;;;;17.39;43.73;93984.09;5051065;28;20051;-88
2024/01/25 07:04:38;;;;;;;165.82;79.43;;;;;;;17.39;44.12;93995.00;5052226;28;20036;-88
2024/01/25 07:07:03;;;;;;;202.50;121.68;;;;;;;17.38;43.96;94004.44;5029091;28;20029;-89
2024/01/25 07:09:29;;;;;;;190.02;110.25;;;;;;;17.37;43.80;94020.09;5060356;28;20060;-89
2024/01/25 07:11:54;;;;;;;163.73;88.07;;;;;;;17.38;43.73;94038.00;5032398;28;20059;-89
2024/01/25 07:14:20;;;;;;;160.45;85.40;;;;;;;17.45;43.42;94034.06;5054770;28;20104;-89
2024/01/25 07:16:47;;;;;;;157.10;89.43;;;;;;;17.47;43.65;94037.81;5022128;28;20075;-89
2024/01/25 07:19:14;;;;;;;150.63;82.47;;;;;;;17.43;43.70;94042.75;5043756;28;20738;-88
2024/01/25 07:21:40;;;;;;;154.90;82.57;;;;;;;17.44;43.63;94029.81;5033525;28;20040;-89
2024/01/25 07:24:05;;;;;;;153.40;86.20;;;;;;;17.42;43.65;94035.78;5069670;28;20035;-88
2024/01/25 07:26:31;;;;;;;136.85;82.03;;;;;;;17.40;43.64;94026.56;5036523;28;20039;-89
2024/01/25 07:28:58;;;;;;;156.75;88.22;;;;;;;17.42;43.24;94027.59;5022850;28;20048;-89
2024/01/25 07:31:26;;;;;;;167.32;96.00;;;;;;;17.47;43.62;94017.91;5051852;28;20596;-89
2024/01/25 07:33:52;;;;;;;183.50;93.95;;;;;;;17.46;43.16;94017.16;5036416;28;20126;-90
2024/01/25 07:36:18;;;;;;;127.50;66.07;;;;;;;17.32;41.87;94028.28;5021000;28;20056;-87
2024/01/25 07:38:44;;;;;;;109.43;53.72;;;;;;;17.27;41.77;94023.53;5047522;28;20044;-89
2024/01/25 07:41:09;;;;;;;137.57;71.68;;;;;;;17.18;42.23;94045.56;5049437;28;20040;-87
2024/01/25 07:43:35;;;;;;;162.23;84.60;;;;;;;17.23;43.15;94050.31;5040295;28;20509;-90
2024/01/25 07:46:01;;;;;;;162.50;89.60;;;;;;;17.28;43.31;94047.63;5032269;28;20033;-88
2024/01/25 07:48:28;;;;;;;148.48;82.75;;;;;;;17.28;43.05;94066.75;5027680;28;20055;-89
2024/01/25 07:50:53;;;;;;;395.30;109.47;;;;;;;17.31;43.31;94071.25;5024170;28;20032;-89
2024/01/25 07:53:19;;;;;;;311.92;103.55;;;;;;;17.29;43.03;94064.78;5024615;28;20094;-87
2024/01/25 07:55:45;;;;;;;316.27;110.95;;;;;;;17.38;43.21;94068.06;5025015;28;20553;-88
2024/01/25 07:58:14;;;;;;;299.20;117.53;;;;;;;17.32;43.37;94056.34;5037781;28;20097;-88
2024/01/25 08:00:40;;;;;;;296.92;121.40;;;;;;;17.37;43.19;94052.88;5070771;28;20040;-88
2024/01/25 08:03:10;;;;;;;272.52;126.50;;;;;;;17.33;43.38;94055.09;5033222;28;20041;-89
2024/01/25 08:05:37;;;;;;;277.70;131.80;;;;;;;17.38;43.22;94059.84;5042054;28;20130;-89
2024/01/25 08:08:03;;;;;;;288.58;143.30;;;;;;;17.41;43.18;94060.88;5050322;28;20040;-88
2024/01/25 08:10:29;;;;;;;289.65;135.27;;;;;;;17.39;43.13;94057.88;5037718;28;20649;-88
2024/01/25 08:12:54;;;;;;;304.67;155.07;;;;;;;17.46;42.96;94073.81;5042472;28;20036;-90
2024/01/25 08:15:20;;;;;;;289.13;149.95;;;;;;;17.45;43.11;94064.88;5035860;28;20040;-86
2024/01/25 08:17:45;;;;;;;310.67;170.82;;;;;;;17.47;43.28;94056.19;5042210;28;20035;-90
2024/01/25 08:20:13;;;;;;;285.75;159.15;;;;;;;17.40;43.24;94059.38;5038275;28;20414;-90
2024/01/25 08:22:40;;;;;;;320.90;178.77;;;;;;;17.44;43.25;94057.91;5049582;28;20454;-89
2024/01/25 08:25:06;;;;;;;292.13;158.32;;;;;;;17.38;42.62;94064.56;5020464;28;20040;-90
2024/01/25 08:27:32;;;;;;;303.88;159.52;;;;;;;17.30;42.99;94071.75;5040616;28;20024;-89
2024/01/25 08:29:58;;;;;;;320.38;166.07;;;;;;;17.36;42.79;94077.97;5035356;28;20032;-90
2024/01/25 08:32:24;;;;;;;286.98;168.35;;;;;;;17.33;43.45;94090.63;5036907;28;20047;-89
2024/01/25 08:34:49;;;;;;;291.73;164.07;;;;;;;17.43;42.88;94091.94;5033971;28;20040;-89
2024/01/25 08:37:14;;;;;;;246.48;117.03;;;;;;;17.32;42.00;94085.66;5024234;28;20033;-90
2024/01/25 08:39:40;;;;;;;236.10;121.70;;;;;;;17.23;42.42;94092.06;5027840;28;20435;-90
2024/01/25 08:42:06;;;;;;;270.75;138.32;;;;;;;17.22;42.67;94101.50;5025637;28;20051;-91
2024/01/25 08:44:32;;;;;;;255.32;131.50;;;;;;;17.29;42.68;94098.31;5037530;28;20045;-90
2024/01/25 08:46:57;;;;;;;261.10;142.27;;;;;;;17.37;43.05;94093.13;5042114;28;20072;-89
2024/01/25 08:49:23;;;;;;;268.30;142.80;;;;;;;17.34;42.90;94099.56;5059668;28;20044;-89
2024/01/25 08:51:48;;;;;;;249.88;134.98;;;;;;;17.36;43.22;94116.22;5028985;28;20059;-88
2024/01/25 08:54:14;;;;;;;252.90;128.18;;;;;;;17.42;42.76;94103.34;5062172;28;20040;-88
2024/01/25 08:56:39;;;;;;;270.27;146.48;;;;;;;17.39;43.12;94126.19;5027475;28;20040;-89
2024/01/25 08:59:05;;;;;;;256.40;134.23;;;;;;;17.38;42.94;94138.34;5025890;28;20044;-92
2024/01/25 09:01:30;;;;;;;245.43;126.00;;;;;;;17.43;43.23;94132.19;5029993;28;20033;-89
2024/01/25 09:04:00;;;;;;;225.40;123.80;;;;;;;17.38;43.16;94130.16;5069837;28;20118;-89
2024/01/25 09:06:26;;;;;;;253.38;132.07;;;;;;;17.45;43.20;94135.19;5031853;28;20107;-90
2024/01/25 09:08:51;;;;;;;201.88;112.40;;;;;;;17.44;43.01;94128.97;5028464;28;20143;-89
2024/01/25 09:11:17;;;;;;;201.98;113.28;;;;;;;17.33;43.11;94131.63;5030347;28;20056;-91
2024/01/25 09:13:45;;;;;;;197.38;109.32;;;;;;;17.39;43.50;94146.06;5051100;28;20051;-91
2024/01/25 09:16:11;;;;;;;190.05;107.28;;;;;;;17.41;43.21;94148.31;5049724;28;20048;-91
2024/01/25 09:18:38;;;;;;;203.88;112.75;;;;;;;17.40;43.43;94157.75;5043954;28;20119;-92
2024/01/25 09:21:04;;;;;;;174.20;99.38;;;;;;;17.33;43.21;94164.41;5061931;28;20051;-91
2024/01/25 09:23:30;;;;;;;175.57;100.72;;;;;;;17.41;43.13;94159.25;5038755;28;20049;-95
2024/01/25 09:25:55;;;;;;;202.93;105.85;;;;;;;17.40;43.24;94153.03;5047166;28;20067;-90
2024/01/25 09:28:22;;;;;;;187.50;100.85;;;;;;;17.44;43.68;94159.03;5038780;28;20045;-89
2024/01/25 09:30:48;;;;;;;166.77;99.32;;;;;;;17.37;43.43;94166.94;5047870;28;20482;-90
2024/01/25 09:33:14;;;;;;;178.63;98.13;;;;;;;17.39;43.40;94159.75;5047026;28;20097;-90
2024/01/25 09:35:39;;;;;;;208.85;108.32;;;;;;;17.40;43.32;94165.97;5025461;28;20041;-90
2024/01/25 09:38:05;;;;;;;175.43;97.43;;;;;;;17.47;43.36;94173.72;5044862;28;20074;-90
2024/01/25 09:40:31;;;;;;;190.38;98.70;;;;;;;17.42;43.11;94179.88;5033620;28;20028;-91
2024/01/25 09:42:56;;;;;;;211.95;94.82;;;;;;;17.30;42.47;94170.88;5055344;28;20028;-92
2024/01/25 09:45:22;;;;;;;199.98;90.20;;;;;;;17.33;42.52;94182.78;5037991;28;20080;-88
2024/01/25 09:47:49;;;;;;;170.35;86.80;;;;;;;17.33;43.09;94182.78;5036647;28;20035;-90
2024/01/25 09:50:15;;;;;;;166.60;88.43;;;;;;;17.37;43.19;94183.31;5031679;28;20033;-89
2024/01/25 09:52:43;;;;;;;168.70;90.80;;;;;;;17.42;42.87;94190.81;5029492;28;20044;-90
2024/01/25 09:55:14;;;;;;;156.57;82.35;;;;;;;17.45;42.76;94189.84;5040290;28;20444;-89
2024/01/25 09:57:39;;;;;;;167.25;87.80;;;;;;;17.48;43.28;94172.50;5059313;28;20115;-88
2024/01/25 10:00:11;;;;;;;162.60;85.28;;;;;;;17.44;42.92;94175.44;5062312;28;20033;-92
2024/01/25 10:02:37;;;;;;;155.70;81.28;;;;;;;17.46;43.40;94172.22;5047542;28;20449;-92
2024/01/25 10:05:03;;;;;;;143.75;77.22;;;;;;;17.43;43.19;94159.53;5054561;28;20028;-87
2024/01/25 10:07:43;;;;;;;154.10;82.43;;;;;;;17.44;42.84;94169.97;5023468;28;20336;-86
2024/01/25 10:10:09;;;;;;;140.95;78.07;;;;;;;17.40;43.08;94153.03;5066880;28;20078;-94
2024/01/25 10:12:38;;;;;;;122.97;74.63;;;;;;;17.39;43.00;94159.00;5076279;28;20044;-90
2024/01/25 10:15:04;;;;;;;136.55;76.60;;;;;;;17.46;43.15;94139.41;5027815;28;20988;-90
2024/01/25 10:17:31;;;;;;;149.00;83.50;;;;;;;17.48;42.75;94150.63;5048591;28;20049;-94
2024/01/25 10:19:56;;;;;;;165.20;89.90;;;;;;;17.40;43.27;94144.09;5045556;28;20064;-92
2024/01/25 10:22:22;;;;;;;171.80;89.55;;;;;;;17.44;43.03;94141.88;5057483;28;20090;-89
2024/01/25 10:24:53;;;;;;;188.70;86.95;;;;;;;17.51;42.94;94144.19;5015716;28;20045;-88
2024/01/25 10:27:18;;;;;;;163.18;81.88;;;;;;;17.46;43.13;94134.69;5000106;28;20056;-88
2024/01/25 10:29:44;;;;;;;175.00;84.30;;;;;;;17.43;43.55;94138.41;5013973;28;20065;-89
2024/01/25 10:32:10;;;;;;;144.80;72.65;;;;;;;17.53;42.38;94136.25;4999842;28;20033;-90
2024/01/25 10:34:36;;;;;;;131.38;70.03;;;;;;;17.46;42.44;94136.69;4986229;28;20044;-89
2024/01/25 10:37:03;;;;;;;108.85;59.67;;;;;;;17.39;41.73;94146.06;5017174;28;20075;-90
2024/01/25 10:39:29;;;;;;;113.22;56.42;;;;;;;17.32;41.33;94146.50;5032433;28;20066;-89
2024/01/25 10:41:54;;;;;;;108.38;58.10;;;;;;;17.23;41.38;94152.16;5005684;28;20041;-92
2024/01/25 10:44:20;;;;;;;100.65;49.65;;;;;;;17.16;41.20;94144.41;5016201;28;20047;-88
2024/01/25 10:46:48;;;;;;;88.95;48.03;;;;;;;17.06;40.65;94143.84;5014692;28;20201;-87
2024/01/25 10:49:15;;;;;;;87.43;45.00;;;;;;;17.03;40.27;94141.34;5023226;28;20040;-89
2024/01/25 10:51:41;;;;;;;85.50;45.40;;;;;;;17.05;40.16;94127.94;5017373;28;20045;-92
2024/01/25 10:54:14;;;;;;;66.78;39.03;;;;;;;16.98;40.57;94129.13;4998195;28;20033;-86
2024/01/25 10:56:41;;;;;;;67.25;40.33;;;;;;;16.96;40.17;94139.78;5036476;28;20032;-87
2024/01/25 10:59:08;;;;;;;77.45;39.28;;;;;;;16.85;40.00;94126.03;5040589;28;20127;-90
2024/01/25 11:01:34;;;;;;;85.97;40.40;;;;;;;16.85;39.77;94126.03;5055009;28;20857;-87
2024/01/25 11:04:00;;;;;;;69.72;35.75;;;;;;;16.81;39.29;94127.47;5055354;28;20035;-92
2024/01/25 11:06:26;;;;;;;80.40;34.97;;;;;;;16.76;39.59;94137.84;5045802;28;20040;-87
2024/01/25 11:08:52;;;;;;;61.20;30.10;;;;;;;16.79;39.23;94136.16;5040130;28;20105;-88
2024/01/25 11:11:17;;;;;;;62.38;29.88;;;;;;;16.76;39.19;94137.84;5042789;28;20057;-89
2024/01/25 11:13:43;;;;;;;61.67;26.10;;;;;;;16.73;38.59;94124.41;5031225;28;20032;-93